Time;durP1;ratioP1;P1;durP2;ratioP2;P2;SDS_P1;SDS_P2;PMS_P1;PMS_P2;Temp;Humidity;BMP_temperature;BMP_pressure;BME280_temperature;BME280_humidity;BME280_pressure;Samples;Min_cycle;Max_cycle;Signal;HPM_P1;HPM_P2
2021/05/03 00:00:44;;;;;;;;;;;;;;;21.78;32.93;101813.94;2165138;40;116252;-55
2021/05/03 00:02:15;;;;;;;;;;;;;;;21.77;33.25;101812.25;2174294;40;115468;-53
2021/05/03 00:03:46;;;;;;;;;;;;;;;21.76;33.29;101802.13;2171359;40;115724;-55
2021/05/03 00:05:20;;;;;;;;;;;;;;;21.77;33.05;101808.59;2167664;40;114108;-56
2021/05/03 00:06:52;;;;;;;;;;;;;;;21.76;33.36;101807.75;2172302;40;114149;-57
2021/05/03 00:08:26;;;;;;;;;;;;;;;21.74;33.33;101813.72;2167358;40;114110;-55
2021/05/03 00:09:57;;;;;;;;;;;;;;;21.73;33.14;101817.66;2165802;40;113852;-55
2021/05/03 00:11:29;;;;;;;;;;;;;;;21.72;33.03;101810.34;2165564;40;113764;-56
2021/05/03 00:13:00;;;;;;;;;;;;;;;21.70;33.52;101809.81;2159408;40;113761;-55
2021/05/03 00:14:31;;;;;;;;;;;;;;;21.67;33.65;101813.19;2163855;40;114144;-55
2021/05/03 00:16:02;;;;;;;;;;;;;;;21.71;33.65;101807.84;2167475;40;114451;-57
2021/05/03 00:17:33;;;;;;;;;;;;;;;21.70;33.55;101821.06;2166507;40;114053;-57
2021/05/03 00:19:04;;;;;;;;;;;;;;;21.68;33.42;101811.22;2164996;40;114058;-56
2021/05/03 00:20:35;;;;;;;;;;;;;;;21.69;33.24;101815.72;2165851;40;113648;-53
2021/05/03 00:22:07;;;;;;;;;;;;;;;21.66;33.49;101817.16;2166315;40;113624;-57
2021/05/03 00:23:38;;;;;;;;;;;;;;;21.67;33.24;101809.53;2166011;40;113785;-56
2021/05/03 00:25:09;;;;;;;;;;;;;;;21.65;33.79;101812.66;2169233;40;113648;-56
2021/05/03 00:26:41;;;;;;;;;;;;;;;21.63;33.70;101820.53;2164898;40;114922;-57
2021/05/03 00:28:12;;;;;;;;;;;;;;;21.62;33.90;101818.84;2164818;40;114815;-54
2021/05/03 00:29:43;;;;;;;;;;;;;;;21.63;33.73;101826.16;2166460;40;115528;-56
2021/05/03 00:31:14;;;;;;;;;;;;;;;21.63;33.53;101805.63;2164844;40;115105;-54
2021/05/03 00:32:46;;;;;;;;;;;;;;;21.63;33.81;101819.69;2167186;40;115023;-57
2021/05/03 00:34:17;;;;;;;;;;;;;;;21.60;33.77;101812.72;2165300;40;114886;-54
2021/05/03 00:35:48;;;;;;;;;;;;;;;21.61;33.76;101817.19;2166842;40;115926;-58
2021/05/03 00:37:19;;;;;;;;;;;;;;;21.62;34.00;101813.22;2164917;40;115306;-57
2021/05/03 00:38:50;;;;;;;;;;;;;;;21.60;34.09;101814.66;2165523;40;115035;-54
2021/05/03 00:40:21;;;;;;;;;;;;;;;21.59;33.72;101813.84;2166001;40;114875;-54
2021/05/03 00:41:52;;;;;;;;;;;;;;;21.59;33.64;101813.00;2166133;40;114936;-55
2021/05/03 00:43:23;;;;;;;;;;;;;;;21.58;33.77;101802.88;2165758;40;115237;-54
2021/05/03 00:44:54;;;;;;;;;;;;;;;21.56;33.73;101807.97;2167745;40;115082;-56
2021/05/03 00:46:25;;;;;;;;;;;;;;;21.56;33.92;101802.34;2170217;40;114848;-55
2021/05/03 00:47:57;;;;;;;;;;;;;;;21.56;33.91;101810.78;2165884;40;115001;-56
2021/05/03 00:49:28;;;;;;;;;;;;;;;21.55;33.94;101804.31;2166913;40;114568;-55
2021/05/03 00:51:00;;;;;;;;;;;;;;;21.53;34.19;101809.38;2165982;40;115610;-57
2021/05/03 00:52:31;;;;;;;;;;;;;;;21.52;34.17;101802.09;2166499;40;115578;-54
2021/05/03 00:54:02;;;;;;;;;;;;;;;21.53;33.83;101802.94;2167636;40;115885;-54
2021/05/03 00:55:33;;;;;;;;;;;;;;;21.49;34.07;101794.22;2164342;40;115587;-55
2021/05/03 00:57:05;;;;;;;;;;;;;;;21.49;34.20;101805.47;2165783;40;115154;-54
2021/05/03 00:58:37;;;;;;;;;;;;;;;21.51;34.04;101794.78;2167230;40;115726;-56
2021/05/03 01:00:10;;;;;;;;;;;;;;;21.49;34.20;101794.22;2165795;40;115774;-54
2021/05/03 01:01:41;;;;;;;;;;;;;;;21.47;33.97;101796.50;2162023;40;115174;-56
2021/05/03 01:03:12;;;;;;;;;;;;;;;21.47;34.05;101801.28;2165287;40;116509;-54
2021/05/03 01:04:43;;;;;;;;;;;;;;;21.46;34.01;101796.78;2165059;40;116699;-56
2021/05/03 01:06:18;;;;;;;;;;;;;;;21.44;34.29;101799.91;2165881;40;115490;-56
2021/05/03 01:07:49;;;;;;;;;;;;;;;21.41;34.09;101794.88;2167359;40;115627;-55
2021/05/03 01:09:20;;;;;;;;;;;;;;;21.43;34.01;101792.63;2171902;40;115833;-57
2021/05/03 01:10:51;;;;;;;;;;;;;;;21.45;34.33;101795.94;2165883;40;113848;-56
2021/05/03 01:12:22;;;;;;;;;;;;;;;21.41;34.58;101789.25;2165245;40;114007;-56
2021/05/03 01:13:53;;;;;;;;;;;;;;;21.41;34.43;101792.06;2165159;40;114520;-55
2021/05/03 01:15:25;;;;;;;;;;;;;;;21.39;34.74;101794.34;2165838;40;114087;-57
2021/05/03 01:16:56;;;;;;;;;;;;;;;21.38;34.81;101795.47;2167277;40;113989;-55
2021/05/03 01:18:29;;;;;;;;;;;;;;;21.37;34.57;101790.13;2165922;40;113922;-57
2021/05/03 01:20:07;;;;;;;;;;;;;;;21.39;34.73;101794.34;2167659;40;114493;-54
2021/05/03 01:21:38;;;;;;;;;;;;;;;21.38;34.62;101791.81;2168590;40;115920;-57
2021/05/03 01:23:09;;;;;;;;;;;;;;;21.37;34.73;101787.31;2168671;40;114585;-54
2021/05/03 01:24:40;;;;;;;;;;;;;;;21.38;34.59;101786.19;2165812;40;114978;-57
2021/05/03 01:26:12;;;;;;;;;;;;;;;21.35;34.46;101781.16;2167744;40;113907;-54
2021/05/03 01:27:44;;;;;;;;;;;;;;;21.35;34.45;101795.22;2167701;40;113674;-53
2021/05/03 01:29:15;;;;;;;;;;;;;;;21.35;34.75;101789.59;2168754;40;114405;-55
2021/05/03 01:30:48;;;;;;;;;;;;;;;21.33;34.64;101786.22;2170037;40;113770;-55
2021/05/03 01:32:19;;;;;;;;;;;;;;;21.31;34.89;101783.69;2167421;40;115333;-56
2021/05/03 01:33:50;;;;;;;;;;;;;;;21.31;34.85;101786.50;2168052;40;114913;-55
2021/05/03 01:35:28;;;;;;;;;;;;;;;21.34;34.68;101783.13;2167210;40;116413;-55
2021/05/03 01:37:00;;;;;;;;;;;;;;;21.30;34.80;101788.47;2167652;40;115035;-56
2021/05/03 01:38:32;;;;;;;;;;;;;;;21.29;34.57;101786.81;2167473;40;114924;-57
2021/05/03 01:40:04;;;;;;;;;;;;;;;21.32;34.97;101788.19;2167784;40;114871;-56
2021/05/03 01:41:35;;;;;;;;;;;;;;;21.30;34.87;101785.66;2166523;40;114856;-56
2021/05/03 01:43:26;;;;;;;;;;;;;;;21.30;34.79;101782.84;2165694;40;115004;-54
2021/05/03 01:45:00;;;;;;;;;;;;;;;21.27;35.08;101772.22;2165793;40;114978;-56
2021/05/03 01:46:33;;;;;;;;;;;;;;;21.28;34.97;101773.91;2167245;40;114790;-54
2021/05/03 01:48:04;;;;;;;;;;;;;;;21.28;35.02;101782.31;2162089;40;114800;-57
2021/05/03 01:49:36;;;;;;;;;;;;;;;21.27;34.72;101780.66;2164767;40;115817;-56
2021/05/03 01:51:07;;;;;;;;;;;;;;;21.26;35.09;101780.94;2167088;40;115051;-55
2021/05/03 01:52:38;;;;;;;;;;;;;;;21.23;35.00;101773.94;2171068;40;114872;-57
2021/05/03 01:54:10;;;;;;;;;;;;;;;21.28;34.79;101781.47;2167903;40;115530;-55
2021/05/03 01:55:42;;;;;;;;;;;;;;;21.27;34.90;101775.03;2167971;40;115621;-54
2021/05/03 01:57:16;;;;;;;;;;;;;;;21.24;34.86;101775.63;2166322;40;115467;-54
2021/05/03 01:58:47;;;;;;;;;;;;;;;21.22;35.08;101771.41;2160601;40;115584;-56
2021/05/03 02:00:18;;;;;;;;;;;;;;;21.19;35.18;101772.84;2166114;40;115549;-59
2021/05/03 02:01:49;;;;;;;;;;;;;;;21.17;35.50;101777.91;2166704;40;116509;-54
2021/05/03 02:03:24;;;;;;;;;;;;;;;21.17;34.99;101780.72;2160321;40;115384;-55
2021/05/03 02:04:55;;;;;;;;;;;;;;;21.16;35.27;101773.44;2165637;40;116190;-55
2021/05/03 02:06:26;;;;;;;;;;;;;;;21.15;35.29;101770.91;2167396;40;115623;-57
2021/05/03 02:07:58;;;;;;;;;;;;;;;21.14;35.15;101774.84;2162633;40;115049;-57
2021/05/03 02:09:29;;;;;;;;;;;;;;;21.12;35.21;101775.09;2167187;40;115645;-56
2021/05/03 02:11:00;;;;;;;;;;;;;;;21.13;35.27;101776.81;2167002;40;115500;-55
2021/05/03 02:12:31;;;;;;;;;;;;;;;21.11;35.24;101781.88;2166787;40;115714;-56
2021/05/03 02:14:03;;;;;;;;;;;;;;;21.11;35.13;101783.84;2170246;40;115600;-54
2021/05/03 02:15:34;;;;;;;;;;;;;;;21.11;35.55;101781.03;2166122;40;113774;-55
2021/05/03 02:17:05;;;;;;;;;;;;;;;21.09;35.50;101784.13;2168092;40;113907;-53
2021/05/03 02:18:38;;;;;;;;;;;;;;;21.07;35.86;101777.97;2170881;40;114086;-54
2021/05/03 02:20:09;;;;;;;;;;;;;;;21.07;35.27;101779.94;2168494;40;114241;-57
2021/05/03 02:21:40;;;;;;;;;;;;;;;21.07;35.35;101777.97;2168109;40;114455;-54
2021/05/03 02:23:12;;;;;;;;;;;;;;;21.06;35.69;101773.47;2168455;40;114088;-58
2021/05/03 02:24:43;;;;;;;;;;;;;;;21.05;35.54;101776.56;2168157;40;114310;-55
2021/05/03 02:26:14;;;;;;;;;;;;;;;21.03;35.46;101771.22;2172618;40;113805;-58
2021/05/03 02:27:46;;;;;;;;;;;;;;;21.04;35.59;101774.88;2169125;40;113616;-55
2021/05/03 02:29:17;;;;;;;;;;;;;;;21.05;35.37;101776.56;2165582;40;113890;-54
2021/05/03 02:30:48;;;;;;;;;;;;;;;21.03;35.35;101776.84;2164479;40;114688;-55
2021/05/03 02:32:19;;;;;;;;;;;;;;;21.02;35.38;101765.91;2167900;40;114181;-54
2021/05/03 02:33:50;;;;;;;;;;;;;;;21.03;35.78;101773.22;2168038;40;113683;-55
2021/05/03 02:35:23;;;;;;;;;;;;;;;21.01;35.36;101759.47;2162429;40;113868;-55
2021/05/03 02:36:56;;;;;;;;;;;;;;;21.01;35.44;101773.50;2170601;40;113734;-56
2021/05/03 02:38:29;;;;;;;;;;;;;;;21.00;35.87;101760.59;2168446;40;115110;-54
2021/05/03 02:40:01;;;;;;;;;;;;;;;20.99;35.85;101760.88;2168262;40;114286;-54
2021/05/03 02:41:32;;;;;;;;;;;;;;;21.00;35.73;101757.78;2167792;40;114909;-58
2021/05/03 02:43:04;;;;;;;;;;;;;;;20.99;35.98;101755.25;2165834;40;115048;-57
2021/05/03 02:44:39;;;;;;;;;;;;;;;20.97;35.93;101760.34;2164928;40;115363;-56
2021/05/03 02:46:11;;;;;;;;;;;;;;;20.96;35.98;101759.50;2166675;40;115403;-55
2021/05/03 02:47:43;;;;;;;;;;;;;;;20.97;36.19;101755.56;2167143;40;115134;-57
2021/05/03 02:49:14;;;;;;;;;;;;;;;20.95;35.91;101752.19;2164135;40;115077;-58
2021/05/03 02:50:45;;;;;;;;;;;;;;;20.98;35.99;101747.97;2163197;40;115975;-55
2021/05/03 02:52:16;;;;;;;;;;;;;;;20.96;36.19;101751.06;2165063;40;114957;-55
2021/05/03 02:53:48;;;;;;;;;;;;;;;20.94;35.90;101746.88;2167949;40;114891;-57
2021/05/03 02:55:19;;;;;;;;;;;;;;;20.93;36.46;101748.84;2167457;40;115068;-56
2021/05/03 02:56:51;;;;;;;;;;;;;;;20.93;36.18;101751.66;2165414;40;115059;-55
2021/05/03 02:58:22;;;;;;;;;;;;;;;20.91;35.89;101734.25;2164985;40;114839;-55
2021/05/03 02:59:53;;;;;;;;;;;;;;;20.93;35.96;101737.59;2164728;40;115534;-56
2021/05/03 03:01:24;;;;;;;;;;;;;;;20.92;36.65;101743.50;2164228;40;115483;-56
2021/05/03 03:02:55;;;;;;;;;;;;;;;20.93;36.33;101740.41;2168042;40;115888;-55
2021/05/03 03:04:26;;;;;;;;;;;;;;;20.90;36.79;101738.19;2161800;40;115963;-54
2021/05/03 03:05:57;;;;;;;;;;;;;;;20.90;36.59;101738.19;2165978;40;119518;-56
2021/05/03 03:07:28;;;;;;;;;;;;;;;20.90;36.73;101726.09;2167950;40;115631;-55
2021/05/03 03:09:00;;;;;;;;;;;;;;;20.88;36.89;101732.03;2168432;40;115690;-55
2021/05/03 03:10:31;;;;;;;;;;;;;;;20.86;36.67;101737.94;2167728;40;115791;-56
2021/05/03 03:12:03;;;;;;;;;;;;;;;20.88;36.34;101734.84;2167729;40;115480;-57
2021/05/03 03:13:35;;;;;;;;;;;;;;;20.86;36.64;101726.69;2165723;40;115671;-55
2021/05/03 03:15:10;;;;;;;;;;;;;;;20.86;36.83;101723.88;2167939;40;115596;-56
2021/05/03 03:16:41;;;;;;;;;;;;;;;20.85;36.29;101725.00;2167793;40;116186;-57
2021/05/03 03:18:12;;;;;;;;;;;;;;;20.84;36.55;101720.53;2168539;40;115874;-56
2021/05/03 03:19:44;;;;;;;;;;;;;;;20.84;36.35;101717.72;2170685;40;115485;-54
2021/05/03 03:21:15;;;;;;;;;;;;;;;20.83;36.41;101718.84;2167039;40;113885;-55
2021/05/03 03:22:46;;;;;;;;;;;;;;;20.83;36.82;101713.25;2168248;40;114025;-57
2021/05/03 03:24:17;;;;;;;;;;;;;;;20.85;36.86;101718.53;2167674;40;113834;-53
2021/05/03 03:25:49;;;;;;;;;;;;;;;20.83;37.04;101718.00;2159745;40;113766;-57
2021/05/03 03:27:20;;;;;;;;;;;;;;;20.82;36.63;101716.31;2171033;40;113736;-56
2021/05/03 03:28:51;;;;;;;;;;;;;;;20.79;36.95;101714.97;2170808;40;113851;-56
2021/05/03 03:30:22;;;;;;;;;;;;;;;20.79;36.75;101723.38;2170643;40;113960;-57
2021/05/03 03:31:53;;;;;;;;;;;;;;;20.79;36.55;101719.72;2168218;40;113804;-57
2021/05/03 03:33:24;;;;;;;;;;;;;;;20.78;36.95;101720.84;2164390;40;113870;-57
2021/05/03 03:34:55;;;;;;;;;;;;;;;20.80;36.82;101721.41;2168545;40;115277;-57
2021/05/03 03:36:26;;;;;;;;;;;;;;;20.76;37.08;101709.91;2167691;40;114203;-56
2021/05/03 03:37:57;;;;;;;;;;;;;;;20.75;36.61;101716.69;2167820;40;113640;-54
2021/05/03 03:39:28;;;;;;;;;;;;;;;20.74;36.75;101709.38;2168295;40;113577;-56
2021/05/03 03:41:00;;;;;;;;;;;;;;;20.74;36.68;101712.19;2170763;40;113649;-54
2021/05/03 03:42:31;;;;;;;;;;;;;;;20.71;36.73;101709.13;2167081;40;115331;-56
2021/05/03 03:44:02;;;;;;;;;;;;;;;20.73;37.14;101707.69;2165066;40;115165;-53
2021/05/03 03:45:34;;;;;;;;;;;;;;;20.73;36.87;101715.28;2168084;40;115399;-53
2021/05/03 03:47:05;;;;;;;;;;;;;;;20.71;36.41;101712.78;2167961;40;115277;-56
2021/05/03 03:48:37;;;;;;;;;;;;;;;20.70;37.03;101713.06;2168036;40;114830;-56
2021/05/03 03:50:08;;;;;;;;;;;;;;;20.68;36.68;101713.34;2167962;40;114679;-57
2021/05/03 03:51:39;;;;;;;;;;;;;;;20.70;36.81;101710.25;2170423;40;115716;-57
2021/05/03 03:53:10;;;;;;;;;;;;;;;20.67;36.73;101708.84;2161464;40;115361;-56
2021/05/03 03:54:42;;;;;;;;;;;;;;;20.67;36.31;101706.03;2163119;40;115515;-55
2021/05/03 03:56:13;;;;;;;;;;;;;;;20.67;36.45;101705.22;2165565;40;114976;-57
2021/05/03 03:57:48;;;;;;;;;;;;;;;20.67;36.45;101710.84;2167039;40;115704;-55
2021/05/03 03:59:19;;;;;;;;;;;;;;;20.66;36.43;101715.59;2167780;40;115064;-57
2021/05/03 04:00:50;;;;;;;;;;;;;;;20.64;36.76;101708.59;2167847;40;115318;-54
2021/05/03 04:02:21;;;;;;;;;;;;;;;20.64;36.61;101706.63;2165650;40;115988;-57
2021/05/03 04:03:56;;;;;;;;;;;;;;;20.62;36.79;101714.53;2162962;40;115526;-55
2021/05/03 04:07:09;;;;;;;;;;;;;;;20.63;36.59;101720.94;2163914;40;115636;-57
2021/05/03 04:24:56;;;;;;;;;;;;;;;20.54;36.64;101720.72;2161253;40;115501;-57
2021/05/03 04:26:27;;;;;;;;;;;;;;;20.52;36.89;101714.56;2162371;40;115579;-56
2021/05/03 04:27:58;;;;;;;;;;;;;;;20.53;36.46;101707.00;2163836;40;115767;-56
2021/05/03 04:29:30;;;;;;;;;;;;;;;20.53;36.86;101709.81;2168857;40;113773;-56
2021/05/03 04:31:01;;;;;;;;;;;;;;;20.52;36.52;101702.50;2164767;40;113598;-57
2021/05/03 04:32:32;;;;;;;;;;;;;;;20.51;36.84;101712.03;2167786;40;113714;-54
2021/05/03 04:34:03;;;;;;;;;;;;;;;20.50;36.61;101714.00;2161051;40;114494;-54
2021/05/03 04:35:34;;;;;;;;;;;;;;;20.50;36.95;101714.00;2165452;40;113590;-58
2021/05/03 04:37:05;;;;;;;;;;;;;;;20.51;36.99;101712.03;2168325;40;113829;-58
2021/05/03 04:38:38;;;;;;;;;;;;;;;20.49;36.68;101711.50;2170926;40;114252;-56
2021/05/03 04:40:09;;;;;;;;;;;;;;;20.48;36.71;101712.63;2168666;40;114062;-57
2021/05/03 04:41:40;;;;;;;;;;;;;;;20.50;36.91;101714.00;2165651;40;114176;-54
2021/05/03 04:43:12;;;;;;;;;;;;;;;20.48;36.84;101707.88;2167551;40;114076;-54
2021/05/03 04:44:43;;;;;;;;;;;;;;;20.49;36.69;101708.72;2167440;40;115869;-56
2021/05/03 04:46:16;;;;;;;;;;;;;;;20.48;36.90;101712.63;2167915;40;114285;-55
2021/05/03 04:47:47;;;;;;;;;;;;;;;20.46;36.87;101712.06;2167203;40;114124;-55
2021/05/03 04:49:19;;;;;;;;;;;;;;;20.44;36.69;101709.56;2167945;40;113674;-56
2021/05/03 04:50:50;;;;;;;;;;;;;;;20.45;36.46;101710.38;2173095;40;115397;-54
2021/05/03 04:52:21;;;;;;;;;;;;;;;20.46;37.00;101712.06;2170584;40;114293;-55
2021/05/03 04:53:52;;;;;;;;;;;;;;;20.44;36.72;101706.75;2165297;40;114444;-57
2021/05/03 04:55:23;;;;;;;;;;;;;;;20.44;36.94;101717.16;2167586;40;115710;-58
2021/05/03 04:56:54;;;;;;;;;;;;;;;20.41;37.04;101708.16;2167567;40;114887;-55
2021/05/03 04:58:26;;;;;;;;;;;;;;;20.43;36.90;101707.88;2167866;40;114938;-53
2021/05/03 04:59:57;;;;;;;;;;;;;;;20.42;36.84;101693.00;2167448;40;114863;-57
2021/05/03 05:01:28;;;;;;;;;;;;;;;20.44;36.81;101705.91;2167749;40;115205;-52
2021/05/03 05:02:59;;;;;;;;;;;;;;;20.41;36.65;101710.97;2167594;40;115121;-55
2021/05/03 05:04:30;;;;;;;;;;;;;;;20.39;37.08;101710.44;2167754;40;115242;-56
2021/05/03 05:06:02;;;;;;;;;;;;;;;20.40;37.08;101709.28;2165776;40;115226;-55
2021/05/03 05:07:33;;;;;;;;;;;;;;;20.38;36.89;101711.56;2164213;40;115215;-56
2021/05/03 05:09:05;;;;;;;;;;;;;;;20.36;36.70;101707.34;2167055;40;114881;-55
2021/05/03 05:10:36;;;;;;;;;;;;;;;20.36;36.89;101710.16;2163018;40;114269;-55
2021/05/03 05:12:07;;;;;;;;;;;;;;;20.35;36.92;101709.31;2161596;40;115584;-54
2021/05/03 05:13:38;;;;;;;;;;;;;;;20.36;36.88;101698.94;2164514;40;115533;-56
2021/05/03 05:15:09;;;;;;;;;;;;;;;20.34;36.78;101710.47;2167879;40;115505;-54
2021/05/03 05:16:40;;;;;;;;;;;;;;;20.32;37.19;101712.69;2165825;40;115487;-56
2021/05/03 05:18:12;;;;;;;;;;;;;;;20.34;36.93;101712.44;2162916;40;115769;-58
2021/05/03 05:19:43;;;;;;;;;;;;;;;20.34;36.77;101709.63;2161308;40;115503;-56
2021/05/03 05:21:14;;;;;;;;;;;;;;;20.34;36.96;101712.44;2162720;40;115113;-56
2021/05/03 05:22:47;;;;;;;;;;;;;;;20.34;37.15;101709.63;2166579;40;116684;-54
2021/05/03 05:24:18;;;;;;;;;;;;;;;20.35;37.28;101714.94;2166566;40;115746;-56
2021/05/03 05:25:49;;;;;;;;;;;;;;;20.31;37.14;101699.78;2167253;40;116304;-56
2021/05/03 05:27:21;;;;;;;;;;;;;;;20.31;37.01;101707.38;2167508;40;115897;-56
2021/05/03 05:28:52;;;;;;;;;;;;;;;20.31;36.93;101704.56;2168447;40;115547;-55
2021/05/03 05:30:24;;;;;;;;;;;;;;;20.33;36.91;101708.78;2165733;40;115535;-57
2021/05/03 05:31:55;;;;;;;;;;;;;;;20.34;36.95;101704.00;2165365;40;115738;-55
2021/05/03 05:33:26;;;;;;;;;;;;;;;20.31;37.15;101711.03;2165664;40;114147;-57
2021/05/03 05:34:57;;;;;;;;;;;;;;;20.32;36.89;101715.50;2164777;40;113854;-57
2021/05/03 05:36:28;;;;;;;;;;;;;;;20.32;37.19;101714.66;2167481;40;114056;-57
2021/05/03 05:37:59;;;;;;;;;;;;;;;20.30;37.35;101714.97;2167723;40;113730;-55
2021/05/03 05:39:30;;;;;;;;;;;;;;;20.29;37.04;101709.63;2159298;40;113955;-57
2021/05/03 05:41:02;;;;;;;;;;;;;;;20.32;37.01;101709.06;2165460;40;114060;-54
2021/05/03 05:42:33;;;;;;;;;;;;;;;20.29;36.85;101715.22;2167476;40;113622;-54
2021/05/03 05:44:06;;;;;;;;;;;;;;;20.27;36.99;101711.84;2168035;40;114141;-56
2021/05/03 05:45:37;;;;;;;;;;;;;;;20.27;36.81;101704.28;2167292;40;113931;-57
2021/05/03 05:47:08;;;;;;;;;;;;;;;20.27;37.02;101698.66;2167553;40;114396;-58
2021/05/03 05:48:40;;;;;;;;;;;;;;;20.25;36.97;101698.13;2167743;40;113864;-57
2021/05/03 05:50:11;;;;;;;;;;;;;;;20.30;36.64;101697.28;2167143;40;113975;-58
2021/05/03 05:51:42;;;;;;;;;;;;;;;20.31;37.22;101701.75;2166677;40;113755;-56
2021/05/03 05:53:13;;;;;;;;;;;;;;;20.33;37.29;101691.94;2163350;40;114255;-56
2021/05/03 05:54:46;;;;;;;;;;;;;;;20.36;37.28;101698.94;2171282;40;114439;-56
2021/05/03 05:56:17;;;;;;;;;;;;;;;20.39;37.42;101696.41;2168266;40;114921;-54
2021/05/03 05:57:48;;;;;;;;;;;;;;;20.39;37.25;101693.59;2167958;40;115659;-56
2021/05/03 05:59:19;;;;;;;;;;;;;;;20.42;37.53;101692.16;2168480;40;115228;-57
2021/05/03 06:00:50;;;;;;;;;;;;;;;20.43;37.29;101688.25;2168035;40;114964;-56
2021/05/03 06:02:21;;;;;;;;;;;;;;;20.46;37.26;101687.66;2167841;40;114846;-56
2021/05/03 06:03:53;;;;;;;;;;;;;;;20.48;37.19;101684.56;2165174;40;114892;-53
2021/05/03 06:05:25;;;;;;;;;;;;;;;20.51;37.58;101675.56;2167449;40;115100;-55
2021/05/03 06:06:56;;;;;;;;;;;;;;;20.54;37.51;101681.41;2168347;40;114837;-55
2021/05/03 06:08:29;;;;;;;;;;;;;;;20.56;37.66;101681.97;2168610;40;114849;-54
2021/05/03 06:10:00;;;;;;;;;;;;;;;20.60;37.42;101671.00;2168298;40;115186;-57
2021/05/03 06:11:32;;;;;;;;;;;;;;;20.64;37.59;101672.94;2167292;40;115301;-55
2021/05/03 06:13:03;;;;;;;;;;;;;;;20.68;38.05;101668.41;2167416;40;114975;-57
2021/05/03 06:14:34;;;;;;;;;;;;;;;20.73;38.01;101681.56;2168024;40;114847;-54
2021/05/03 06:16:05;;;;;;;;;;;;;;;20.76;37.64;101672.56;2166617;40;114893;-56
2021/05/03 06:17:36;;;;;;;;;;;;;;;20.81;37.55;101666.91;2168399;40;115637;-53
2021/05/03 06:19:07;;;;;;;;;;;;;;;20.84;37.85;101672.78;2168625;40;117034;-54
2021/05/03 06:20:39;;;;;;;;;;;;;;;20.88;37.58;101658.16;2167210;40;114655;-57
2021/05/03 06:22:10;;;;;;;;;;;;;;;20.93;37.61;101675.81;2164296;40;115097;-54
2021/05/03 06:23:42;;;;;;;;;;;;;;;20.97;37.71;101662.00;2163048;40;115499;-57
2021/05/03 06:25:13;;;;;;;;;;;;;;;21.02;37.78;101661.97;2165273;40;115681;-55
2021/05/03 06:26:44;;;;;;;;;;;;;;;21.05;37.58;101652.94;2167912;40;115702;-56
2021/05/03 06:28:16;;;;;;;;;;;;;;;21.08;37.24;101657.97;2168514;40;115737;-55
2021/05/03 06:29:47;;;;;;;;;;;;;;;21.13;37.54;101663.56;2170807;40;115449;-56
2021/05/03 06:31:20;;;;;;;;;;;;;;;21.17;37.00;101650.59;2165037;40;115866;-57
2021/05/03 06:32:51;;;;;;;;;;;;;;;21.22;37.03;101658.97;2165345;40;115418;-56
2021/05/03 06:34:23;;;;;;;;;;;;;;;21.27;37.59;101656.97;2168347;40;115641;-56
2021/05/03 06:35:54;;;;;;;;;;;;;;;21.30;37.43;101659.19;2167782;40;116378;-55
2021/05/03 06:37:25;;;;;;;;;;;;;;;21.36;37.10;101651.53;2169724;40;117156;-54
2021/05/03 06:38:57;;;;;;;;;;;;;;;21.40;36.94;101658.22;2166981;40;113897;-54
2021/05/03 06:40:29;;;;;;;;;;;;;;;21.44;37.11;101656.50;2167034;40;113727;-55
2021/05/03 06:42:00;;;;;;;;;;;;;;;21.48;36.82;101657.63;2163653;40;113888;-57
2021/05/03 06:43:31;;;;;;;;;;;;;;;21.52;36.70;101661.50;2166676;40;113984;-54
2021/05/03 06:45:03;;;;;;;;;;;;;;;21.56;36.49;101661.72;2163391;40;114050;-56
2021/05/03 06:46:34;;;;;;;;;;;;;;;21.59;36.59;101661.97;2167097;40;113845;-55
2021/05/03 06:48:08;;;;;;;;;;;;;;;21.64;36.57;101658.25;2166650;40;114355;-56
2021/05/03 06:49:39;;;;;;;;;;;;;;;21.67;37.10;101649.22;2165108;40;113873;-56
2021/05/03 06:51:10;;;;;;;;;;;;;;;21.70;36.75;101649.47;2161900;40;114000;-56
2021/05/03 06:52:44;;;;;;;;;;;;;;;21.73;36.27;101636.78;2166684;40;113748;-57
2021/05/03 06:54:15;;;;;;;;;;;;;;;21.77;35.92;101651.06;2163671;40;113949;-56
2021/05/03 06:55:46;;;;;;;;;;;;;;;21.80;36.23;101650.50;2165619;40;113965;-55
2021/05/03 06:57:17;;;;;;;;;;;;;;;21.84;36.10;101645.94;2168438;40;114000;-58
2021/05/03 06:58:48;;;;;;;;;;;;;;;21.85;36.25;101642.81;2170080;40;113644;-56
2021/05/03 07:00:19;;;;;;;;;;;;;;;21.90;36.24;101647.53;2168374;40;114976;-56
2021/05/03 07:01:51;;;;;;;;;;;;;;;21.93;36.69;101647.81;2167966;40;114976;-55
2021/05/03 07:03:23;;;;;;;;;;;;;;;21.96;36.05;101646.38;2168119;40;115555;-57
2021/05/03 07:04:55;;;;;;;;;;;;;;;21.99;36.16;101638.16;2162558;40;115297;-56
2021/05/03 07:06:26;;;;;;;;;;;;;;;22.01;36.10;101630.25;2165309;40;115235;-55
2021/05/03 07:07:57;;;;;;;;;;;;;;;22.05;36.36;101639.78;2167855;40;114905;-55
2021/05/03 07:09:28;;;;;;;;;;;;;;;22.09;36.50;101640.00;2167993;40;114934;-54
2021/05/03 07:11:05;;;;;;;;;;;;;;;22.13;36.15;101632.63;2168187;40;114800;-54
2021/05/03 07:12:41;;;;;;;;;;;;;;;22.17;36.33;101639.31;2167014;40;114968;-55
2021/05/03 07:14:12;;;;;;;;;;;;;;;22.19;36.04;101645.50;2163681;40;114892;-56
2021/05/03 07:15:43;;;;;;;;;;;;;;;22.11;34.67;101649.84;2167792;40;114430;-56
2021/05/03 07:17:15;;;;;;;;;;;;;;;21.79;32.28;101646.00;2168476;40;115293;-55
2021/05/03 07:18:46;;;;;;;;;;;;;;;21.58;32.02;101651.00;2168192;40;115277;-56
2021/05/03 07:20:17;;;;;;;;;;;;;;;21.36;31.73;101640.28;2170662;40;115145;-54
2021/05/03 07:21:48;;;;;;;;;;;;;;;21.13;31.49;101644.75;2165883;40;116063;-55
2021/05/03 07:23:19;;;;;;;;;;;;;;;21.05;31.72;101642.53;2168036;40;115736;-55
2021/05/03 07:24:50;;;;;;;;;;;;;;;21.06;31.98;101640.56;2168044;40;115680;-54
2021/05/03 07:26:23;;;;;;;;;;;;;;;21.28;31.83;101643.75;2161500;40;115834;-55
2021/05/03 07:27:54;;;;;;;;;;;;;;;21.43;32.03;101640.78;2163166;40;115564;-54
2021/05/03 07:29:25;;;;;;;;;;;;;;;21.50;32.43;101641.25;2163791;40;115642;-55
2021/05/03 07:30:58;;;;;;;;;;;;;;;21.55;32.69;101646.00;2162560;40;116416;-52
2021/05/03 07:32:29;;;;;;;;;;;;;;;21.60;32.48;101641.16;2168038;40;114824;-56
2021/05/03 07:34:00;;;;;;;;;;;;;;;21.65;33.09;101637.44;2167991;40;115589;-56
2021/05/03 07:35:32;;;;;;;;;;;;;;;21.68;33.13;101629.25;2167967;40;115581;-57
2021/05/03 07:37:05;;;;;;;;;;;;;;;21.69;32.86;101632.91;2167110;40;116336;-56
2021/05/03 07:38:37;;;;;;;;;;;;;;;21.72;33.19;101621.03;2165564;40;115691;-56
2021/05/03 07:40:09;;;;;;;;;;;;;;;21.74;33.25;101625.25;2168112;40;116036;-52
2021/05/03 07:41:41;;;;;;;;;;;;;;;21.76;33.65;101613.66;2167648;40;115505;-54
2021/05/03 07:43:12;;;;;;;;;;;;;;;21.78;33.70;101617.03;2167926;40;115629;-57
2021/05/03 07:44:43;;;;;;;;;;;;;;;21.80;33.48;101613.94;2168104;40;113995;-54
2021/05/03 07:46:14;;;;;;;;;;;;;;;21.81;33.71;101616.41;2168064;40;113782;-56
2021/05/03 07:47:46;;;;;;;;;;;;;;;21.82;33.93;101622.88;2168057;40;114042;-55
2021/05/03 07:49:17;;;;;;;;;;;;;;;21.83;33.50;101616.13;2168387;40;113796;-56
2021/05/03 07:50:48;;;;;;;;;;;;;;;21.83;33.54;101613.31;2167757;40;113803;-56
2021/05/03 07:52:19;;;;;;;;;;;;;;;21.84;33.59;101609.38;2168556;40;114110;-56
2021/05/03 07:53:52;;;;;;;;;;;;;;;21.85;33.59;101599.78;2165048;40;113660;-54
2021/05/03 07:55:23;;;;;;;;;;;;;;;21.83;33.66;101600.09;2166337;40;113868;-56
2021/05/03 07:56:55;;;;;;;;;;;;;;;21.84;33.74;101603.75;2167200;40;114518;-55
2021/05/03 07:58:26;;;;;;;;;;;;;;;21.83;33.90;101597.28;2167984;40;114267;-55
2021/05/03 07:59:57;;;;;;;;;;;;;;;21.85;34.11;101596.97;2168021;40;113722;-54
2021/05/03 08:01:28;;;;;;;;;;;;;;;21.84;34.07;101603.75;2167796;40;114031;-56
2021/05/03 08:03:01;;;;;;;;;;;;;;;21.83;33.72;101602.06;2166539;40;114059;-53